Date,TemperatureHighF,TemperatureAvgF,TemperatureLowF,DewpointHighF,DewpointAvgF,DewpointLowF,HumidityHigh,HumidityAvg,HumidityLow,PressureMaxIn,PressureMinIn,WindSpeedMaxMPH,WindSpeedAvgMPH,GustSpeedMaxMPH,PrecipitationSumIn
2013-3-1,56.9,52.8,49.2,52.3,50.3,47.5,99,91,81,30.30,30.19,5,0,11,0.00
2013-3-2,55.7,47.2,37.1,49.6,44.8,36.3,99,92,74,30.20,29.97,5,0,11,0.06
2013-3-3,46.1,38.5,32.9,40.5,35.5,31.5,99,90,63,30.26,30.12,8,0,9,0.00
2013-3-4,52.1,40.4,29.6,38.3,30.1,25.7,96,71,39,30.26,29.86,6,1,8,0.00
2013-3-5,52.9,46.1,41.6,40.2,33.0,24.6,92,62,43,29.86,29.62,13,1,13,0.00
2013-3-6,43.1,40.4,37.7,41.7,39.0,36.1,100,95,88,29.83,29.49,2,0,2,0.01
2013-3-7,47.2,41.4,36.4,45.3,40.5,35.8,99,97,90,30.03,29.83,3,0,4,0.00
2013-3-8,50.0,38.8,31.1,44.2,36.6,30.6,99,92,73,30.19,30.01,3,0,4,0.00
2013-3-9,51.9,40.7,31.0,42.0,36.1,30.5,99,85,58,30.45,30.19,4,0,7,0.00
2013-3-10,45.5,40.8,35.3,42.7,38.9,33.7,100,93,86,30.45,30.38,3,0,4,0.00
2013-3-11,51.1,44.7,38.6,46.3,42.6,37.8,99,92,77,30.40,30.09,4,0,5,0.00
2013-3-12,53.5,51.1,45.4,50.1,48.2,44.6,99,90,78,30.10,29.99,6,0,11,0.00
2013-3-13,52.0,50.8,49.0,51.1,49.3,47.4,98,94,88,30.12,30.00,2,0,3,0.00
2013-3-14,53.0,49.3,47.2,52.2,48.4,45.6,100,97,88,30.08,29.93,4,0,6,0.00
2013-3-15,57.9,51.8,47.6,51.8,48.6,45.9,97,89,73,30.13,30.04,4,0,6,0.00
2013-3-16,48.8,45.8,40.3,46.6,42.5,36.3,96,88,78,30.05,29.80,3,0,7,0.00
2013-3-17,47.4,40.9,36.2,38.0,36.3,34.4,96,84,63,30.14,29.89,10,0,10,0.00
2013-3-18,49.6,41.7,35.8,41.7,37.3,34.4,96,85,60,30.19,30.05,8,0,8,0.00
2013-3-19,54.6,42.5,34.6,41.4,34.6,27.4,96,77,37,30.17,29.51,13,1,14,0.00
2013-3-20,48.7,44.5,39.1,48.4,41.7,34.4,99,90,75,29.94,29.30,13,1,18,0.00
2013-3-21,47.4,39.0,34.2,38.2,35.4,33.4,98,87,67,30.17,29.94,6,0,11,0.00
2013-3-22,43.3,36.2,31.4,39.5,33.7,30.1,98,91,69,30.35,30.16,4,0,6,0.00
2013-3-23,49.8,38.1,30.7,33.8,30.1,26.2,96,75,41,30.37,30.26,6,0,7,0.00
2013-3-24,54.6,41.6,31.2,33.7,29.5,25.3,93,66,33,30.26,30.07,7,0,8,0.00
2013-3-25,61.3,48.9,36.1,36.8,30.9,27.1,73,51,32,30.08,29.84,7,0,8,0.00
2013-3-26,59.8,50.1,43.7,42.7,38.7,35.1,81,66,45,29.92,29.86,5,0,7,0.00
2013-3-27,56.9,48.3,42.5,49.6,43.5,39.3,97,84,63,29.90,29.84,3,0,5,0.00
2013-3-28,60.7,49.8,42.5,50.1,45.2,41.7,98,86,61,30.07,29.90,5,0,7,0.00
2013-3-29,65.3,51.7,42.5,49.3,44.6,41.2,96,79,51,30.16,30.07,7,0,9,0.00
2013-3-30,68.6,52.1,39.4,48.0,43.5,38.5,98,76,39,30.17,29.98,4,0,6,0.15
2013-3-31,73.7,54.5,40.3,50.2,44.9,39.2,97,74,37,29.98,29.80,5,0,6,0.00